createdAt,value
2017-09-30T00:00:17.419Z,12.45
2017-09-30T00:00:51.128Z,12.82
2017-09-30T00:01:24.849Z,13.10
2017-09-30T00:01:58.586Z,12.95
2017-09-30T00:02:32.737Z,13.80
2017-09-30T00:03:06.457Z,12.93
2017-09-30T00:03:40.189Z,12.88
2017-09-30T00:04:13.904Z,13.77
2017-09-30T00:04:47.639Z,13.68
2017-09-30T00:05:22.130Z,13.93
2017-09-30T00:05:55.852Z,13.07
2017-09-30T00:06:29.573Z,12.52
2017-09-30T00:07:03.276Z,13.65
2017-09-30T00:07:37.010Z,12.85
2017-09-30T00:08:11.508Z,13.00
2017-09-30T00:08:45.234Z,12.98
2017-09-30T00:09:18.968Z,12.35
2017-09-30T00:09:52.782Z,13.62
2017-09-30T00:10:26.524Z,13.27
2017-09-30T00:11:00.237Z,14.02
2017-09-30T00:11:34.076Z,13.82
2017-09-30T00:12:08.582Z,12.70
2017-09-30T00:12:43.078Z,13.55
2017-09-30T00:13:16.827Z,13.30
2017-09-30T00:13:50.547Z,13.75
2017-09-30T00:14:24.266Z,12.45
2017-09-30T00:14:58.773Z,13.62
2017-09-30T00:15:33.260Z,13.32
2017-09-30T00:16:07.804Z,13.20
2017-09-30T00:16:41.550Z,13.30
2017-09-30T00:17:15.275Z,11.73
2017-09-30T00:17:49.787Z,13.50
2017-09-30T00:18:24.272Z,12.70
2017-09-30T00:18:58.020Z,14.57
2017-09-30T00:19:31.748Z,14.77
2017-09-30T00:20:05.482Z,13.57
2017-09-30T00:20:39.206Z,13.75
2017-09-30T00:21:12.941Z,13.52
2017-09-30T00:21:47.439Z,13.32
2017-09-30T00:22:21.150Z,12.70
2017-09-30T00:22:55.628Z,13.68
2017-09-30T00:23:29.359Z,13.00
2017-09-30T00:24:03.084Z,13.15
2017-09-30T00:24:36.812Z,13.62
2017-09-30T00:25:10.552Z,13.88
2017-09-30T00:25:44.272Z,13.60
2017-09-30T00:26:18.110Z,14.07
2017-09-30T00:26:51.852Z,13.88
2017-09-30T00:27:25.570Z,14.30
2017-09-30T00:27:59.294Z,14.73
2017-09-30T00:28:33.018Z,13.75
2017-09-30T00:29:06.741Z,13.80
2017-09-30T00:29:40.483Z,14.20
2017-09-30T00:30:14.229Z,14.40
2017-09-30T00:30:48.715Z,14.00
2017-09-30T00:31:22.440Z,14.18
2017-09-30T00:31:56.927Z,13.55
2017-09-30T00:32:31.412Z,13.90
2017-09-30T00:33:05.142Z,13.43
2017-09-30T00:33:39.617Z,14.77
2017-09-30T00:34:13.343Z,14.10
2017-09-30T00:34:47.845Z,15.38
2017-09-30T00:35:22.339Z,14.70
2017-09-30T00:35:56.103Z,15.52
2017-09-30T00:36:29.860Z,15.30
2017-09-30T00:37:03.588Z,13.88
2017-09-30T00:37:36.634Z,14.32
2017-09-30T00:38:10.345Z,15.32
2017-09-30T00:38:44.059Z,15.32
2017-09-30T00:39:17.785Z,13.77
2017-09-30T00:39:52.290Z,14.00
2017-09-30T00:40:26.803Z,14.25
2017-09-30T00:41:01.282Z,14.35
2017-09-30T00:41:35.010Z,14.80
2017-09-30T00:42:09.138Z,14.75
2017-09-30T00:42:42.890Z,14.13
2017-09-30T00:43:16.692Z,14.48
2017-09-30T00:43:50.425Z,14.23
2017-09-30T00:44:23.801Z,14.45
2017-09-30T00:44:57.528Z,14.68
2017-09-30T00:45:31.272Z,15.60
2017-09-30T00:46:04.993Z,14.65
2017-09-30T00:46:38.718Z,15.02
2017-09-30T00:47:12.856Z,14.60
2017-09-30T00:47:46.585Z,14.80
2017-09-30T00:48:20.320Z,15.15
2017-09-30T00:48:54.066Z,13.30
2017-09-30T00:49:27.779Z,15.18
2017-09-30T00:50:02.269Z,14.05
2017-09-30T00:50:36.023Z,15.82
2017-09-30T00:51:09.735Z,15.18
2017-09-30T00:51:43.112Z,14.87
2017-09-30T00:52:16.845Z,16.30
2017-09-30T00:52:50.448Z,15.68
2017-09-30T00:53:24.463Z,15.50
2017-09-30T00:53:58.180Z,15.05
2017-09-30T00:54:31.564Z,15.20
2017-09-30T00:55:05.284Z,15.40
2017-09-30T00:55:38.340Z,15.00
2017-09-30T00:56:11.369Z,16.10
2017-09-30T00:56:44.408Z,15.30
2017-09-30T00:57:18.200Z,15.57
2017-09-30T00:57:51.224Z,15.93
2017-09-30T00:58:24.242Z,15.02
2017-09-30T00:58:57.273Z,15.90
2017-09-30T00:59:30.329Z,15.20
2017-09-30T01:00:03.702Z,14.87
2017-09-30T01:00:37.500Z,16.08
2017-09-30T01:01:10.704Z,14.73
2017-09-30T01:01:44.077Z,14.45
2017-09-30T01:02:17.450Z,15.23
2017-09-30T01:02:51.169Z,16.45
2017-09-30T01:03:24.908Z,13.80
2017-09-30T01:03:59.401Z,16.12
2017-09-30T01:04:33.896Z,15.23
2017-09-30T01:05:07.617Z,16.20
2017-09-30T01:05:42.091Z,16.10
2017-09-30T01:06:15.832Z,15.90
2017-09-30T01:06:49.952Z,17.45
2017-09-30T01:07:23.670Z,16.00
2017-09-30T01:07:57.381Z,15.10
2017-09-30T01:08:31.091Z,15.55
2017-09-30T01:09:04.890Z,15.57
2017-09-30T01:09:39.389Z,15.55
2017-09-30T01:10:13.900Z,15.98
2017-09-30T01:10:47.703Z,16.60
2017-09-30T01:11:22.244Z,16.87
2017-09-30T01:11:55.613Z,16.55
2017-09-30T01:12:30.483Z,16.77
2017-09-30T01:13:04.196Z,15.70
2017-09-30T01:13:38.688Z,16.87
2017-09-30T01:14:12.406Z,17.10
2017-09-30T01:14:46.127Z,17.42
2017-09-30T01:15:19.857Z,17.15
2017-09-30T01:15:53.256Z,16.67
2017-09-30T01:16:27.416Z,17.52
2017-09-30T01:17:01.146Z,16.02
2017-09-30T01:17:35.624Z,17.65
2017-09-30T01:18:09.330Z,15.50
2017-09-30T01:18:42.709Z,16.65
2017-09-30T01:19:16.091Z,16.25
2017-09-30T01:19:49.211Z,16.90
2017-09-30T01:20:22.252Z,17.05
2017-09-30T01:20:55.620Z,16.83
2017-09-30T01:21:28.687Z,16.12
2017-09-30T01:22:01.705Z,17.87
2017-09-30T01:22:34.870Z,16.42
2017-09-30T01:23:08.764Z,17.33
2017-09-30T01:23:42.557Z,16.50
2017-09-30T01:24:16.379Z,17.73
2017-09-30T01:24:49.757Z,16.35
2017-09-30T01:25:26.092Z,16.55
2017-09-30T01:25:59.900Z,17.35
2017-09-30T01:26:32.932Z,17.05
2017-09-30T01:27:06.311Z,17.45
2017-09-30T01:27:39.352Z,16.98
2017-09-30T01:28:12.388Z,16.05
2017-09-30T01:28:46.280Z,17.05
2017-09-30T01:29:20.073Z,18.15
2017-09-30T01:29:53.861Z,16.73
2017-09-30T01:30:28.343Z,16.65
2017-09-30T01:31:01.400Z,17.83
2017-09-30T01:31:34.784Z,16.62
2017-09-30T01:32:07.809Z,16.83
2017-09-30T01:32:41.932Z,17.15
2017-09-30T01:33:15.305Z,17.02
2017-09-30T01:33:48.360Z,17.85
2017-09-30T01:34:22.156Z,17.00
2017-09-30T01:34:55.946Z,15.60
2017-09-30T01:35:29.732Z,17.48
2017-09-30T01:36:03.860Z,15.90
2017-09-30T01:36:37.189Z,17.00
2017-09-30T01:37:10.928Z,16.48
2017-09-30T01:37:43.952Z,18.17
2017-09-30T01:38:17.314Z,17.62
2017-09-30T01:38:50.340Z,17.73
2017-09-30T01:39:24.233Z,18.08
2017-09-30T01:39:57.265Z,17.70
2017-09-30T01:40:30.292Z,17.98
2017-09-30T01:41:04.076Z,18.70
2017-09-30T01:41:38.281Z,16.42
2017-09-30T01:42:12.404Z,17.10
2017-09-30T01:42:45.428Z,17.42
2017-09-30T01:43:19.222Z,17.08
2017-09-30T01:43:52.233Z,17.67
2017-09-30T01:44:25.270Z,17.85
2017-09-30T01:44:58.284Z,18.00
2017-09-30T01:45:31.292Z,17.75
2017-09-30T01:46:04.317Z,17.12
2017-09-30T01:46:38.129Z,18.45
2017-09-30T01:47:11.500Z,18.55
2017-09-30T01:47:45.693Z,17.25
2017-09-30T01:48:19.480Z,18.50
2017-09-30T01:48:52.537Z,17.67
2017-09-30T01:49:25.564Z,16.95
2017-09-30T01:49:58.592Z,18.95
2017-09-30T01:50:31.968Z,18.05
2017-09-30T01:51:04.999Z,18.23
2017-09-30T01:51:38.037Z,18.15
2017-09-30T01:52:11.824Z,18.10
2017-09-30T01:52:44.848Z,17.77
2017-09-30T01:53:18.221Z,18.05
2017-09-30T01:53:51.252Z,18.08
2017-09-30T01:54:24.274Z,16.60
2017-09-30T01:54:57.648Z,17.95
2017-09-30T01:55:31.041Z,17.37
2017-09-30T01:56:04.440Z,18.02
2017-09-30T01:56:37.468Z,18.75
2017-09-30T01:57:11.626Z,17.80
2017-09-30T01:57:44.646Z,18.00
2017-09-30T01:58:18.789Z,17.55
2017-09-30T01:58:52.199Z,17.37
2017-09-30T01:59:25.230Z,17.77
2017-09-30T01:59:58.260Z,18.90
2017-09-30T02:00:31.281Z,17.95
2017-09-30T02:01:04.293Z,18.33
2017-09-30T02:01:37.306Z,18.45
2017-09-30T02:02:10.321Z,18.55
2017-09-30T02:02:43.698Z,18.90
2017-09-30T02:03:16.727Z,19.85
2017-09-30T02:03:50.876Z,18.98
2017-09-30T02:04:24.256Z,19.77
2017-09-30T02:04:57.281Z,18.62
2017-09-30T02:05:31.762Z,19.65
2017-09-30T02:06:05.147Z,19.62
2017-09-30T02:06:38.535Z,18.90
2017-09-30T02:07:11.905Z,19.35
2017-09-30T02:07:45.645Z,19.67
2017-09-30T02:08:19.031Z,19.77
2017-09-30T02:08:52.403Z,19.45
2017-09-30T02:09:26.168Z,21.33
2017-09-30T02:10:00.652Z,20.08
2017-09-30T02:10:34.369Z,19.87
2017-09-30T02:11:07.780Z,19.62
2017-09-30T02:11:41.148Z,20.17
2017-09-30T02:12:15.296Z,21.58
2017-09-30T02:12:49.033Z,20.40
2017-09-30T02:13:23.519Z,21.25
2017-09-30T02:13:57.239Z,20.70
2017-09-30T02:14:31.716Z,20.55
2017-09-30T02:15:05.439Z,20.08
2017-09-30T02:15:39.569Z,20.88
2017-09-30T02:16:13.337Z,18.70
2017-09-30T02:16:47.077Z,20.17
2017-09-30T02:17:20.810Z,20.95
2017-09-30T02:17:54.963Z,20.95
2017-09-30T02:18:28.344Z,21.27
2017-09-30T02:19:01.712Z,19.92
2017-09-30T02:19:35.426Z,21.33
2017-09-30T02:20:09.148Z,21.80
2017-09-30T02:20:42.237Z,21.75
2017-09-30T02:21:16.388Z,22.60
2017-09-30T02:21:50.113Z,20.02
2017-09-30T02:22:23.140Z,20.70
2017-09-30T02:22:57.219Z,20.92
2017-09-30T02:23:30.929Z,21.95
2017-09-30T02:24:04.308Z,21.75
2017-09-30T02:24:38.015Z,22.58
2017-09-30T02:25:11.776Z,22.52
2017-09-30T02:25:45.495Z,22.42
2017-09-30T02:26:19.225Z,23.08
2017-09-30T02:26:53.747Z,22.85
2017-09-30T02:27:28.234Z,21.12
2017-09-30T02:28:03.593Z,25.70
2017-09-30T02:28:37.333Z,23.08
2017-09-30T02:29:11.068Z,22.55
2017-09-30T02:29:45.552Z,23.87
2017-09-30T02:30:19.284Z,23.27
2017-09-30T02:30:53.008Z,23.33
2017-09-30T02:31:26.743Z,23.20
2017-09-30T02:32:01.250Z,24.25
2017-09-30T02:32:35.731Z,22.75
2017-09-30T02:33:09.470Z,25.15
2017-09-30T02:33:43.952Z,25.88
2017-09-30T02:34:17.685Z,23.20
2017-09-30T02:34:51.409Z,23.42
2017-09-30T02:35:25.125Z,23.40
2017-09-30T02:35:58.849Z,24.05
2017-09-30T02:36:32.582Z,24.50
2017-09-30T02:37:06.299Z,22.90
2017-09-30T02:37:40.809Z,24.42
2017-09-30T02:38:15.341Z,24.50
2017-09-30T02:38:49.049Z,25.30
2017-09-30T02:39:22.774Z,24.73
2017-09-30T02:39:56.513Z,24.20
2017-09-30T02:40:30.238Z,24.70
2017-09-30T02:41:03.967Z,24.70
2017-09-30T02:41:38.474Z,25.83
2017-09-30T02:42:12.961Z,23.85
2017-09-30T02:42:46.693Z,24.60
2017-09-30T02:43:21.202Z,25.25
2017-09-30T02:43:55.717Z,22.92
2017-09-30T02:44:30.206Z,24.45
2017-09-30T02:45:03.921Z,24.58
2017-09-30T02:45:38.396Z,25.15
2017-09-30T02:46:12.115Z,24.73
2017-09-30T02:46:46.576Z,25.73
2017-09-30T02:47:20.314Z,24.33
2017-09-30T02:47:54.039Z,25.00
2017-09-30T02:48:28.124Z,24.48
2017-09-30T02:49:01.866Z,26.33
2017-09-30T02:49:36.369Z,26.42
2017-09-30T02:50:10.099Z,27.05
2017-09-30T02:50:43.858Z,26.77
2017-09-30T02:51:17.560Z,27.17
2017-09-30T02:51:51.281Z,26.17
2017-09-30T02:52:25.002Z,27.23
2017-09-30T02:52:58.711Z,26.17
2017-09-30T02:53:32.438Z,26.15
2017-09-30T02:54:06.957Z,26.85
2017-09-30T02:54:40.488Z,25.77
2017-09-30T02:55:14.225Z,25.70
2017-09-30T02:55:48.696Z,26.52
2017-09-30T02:56:22.421Z,27.90
2017-09-30T02:56:56.726Z,28.80
2017-09-30T02:57:31.335Z,27.85
2017-09-30T02:58:05.810Z,27.05
2017-09-30T02:58:39.548Z,28.95
2017-09-30T02:59:13.274Z,27.83
2017-09-30T02:59:46.996Z,25.00
2017-09-30T03:00:20.706Z,27.58
2017-09-30T03:00:55.284Z,27.98
2017-09-30T03:01:28.988Z,26.85
2017-09-30T03:02:02.697Z,29.65
2017-09-30T03:02:37.184Z,28.65
2017-09-30T03:03:10.914Z,28.00
2017-09-30T03:03:44.327Z,28.15
2017-09-30T03:04:18.072Z,27.52
2017-09-30T03:04:52.479Z,28.90
2017-09-30T03:05:26.799Z,27.37
2017-09-30T03:06:00.538Z,28.80
2017-09-30T03:06:34.258Z,28.98
2017-09-30T03:07:08.774Z,29.02
2017-09-30T03:07:43.249Z,27.50
2017-09-30T03:08:16.988Z,28.38
2017-09-30T03:08:50.727Z,28.38
2017-09-30T03:09:24.436Z,29.58
2017-09-30T03:09:58.165Z,29.70
2017-09-30T03:10:31.939Z,29.63
2017-09-30T03:11:06.424Z,28.40
2017-09-30T03:11:40.138Z,29.05
2017-09-30T03:12:14.643Z,31.62
2017-09-30T03:12:49.136Z,30.10
2017-09-30T03:13:22.865Z,30.50
2017-09-30T03:13:56.956Z,28.20
2017-09-30T03:14:30.667Z,30.45
2017-09-30T03:15:04.033Z,28.20
2017-09-30T03:15:37.763Z,28.73
2017-09-30T03:16:11.487Z,30.25
2017-09-30T03:16:45.965Z,30.40
2017-09-30T03:17:19.688Z,29.58
2017-09-30T03:17:54.177Z,28.92
2017-09-30T03:18:27.886Z,29.00
2017-09-30T03:19:02.401Z,29.55
2017-09-30T03:19:36.897Z,30.48
2017-09-30T03:20:10.704Z,30.35
2017-09-30T03:20:45.263Z,29.55
2017-09-30T03:21:18.982Z,29.67
2017-09-30T03:21:52.715Z,30.50
2017-09-30T03:22:26.457Z,32.63
2017-09-30T03:23:00.172Z,30.80
2017-09-30T03:23:33.897Z,29.35
2017-09-30T03:24:07.640Z,32.25
2017-09-30T03:24:41.368Z,27.87
2017-09-30T03:25:15.088Z,30.17
2017-09-30T03:25:48.801Z,32.30
2017-09-30T03:26:22.520Z,28.17
2017-09-30T03:26:57.017Z,30.73
2017-09-30T03:27:30.739Z,31.45
2017-09-30T03:28:04.482Z,30.37
2017-09-30T03:28:38.206Z,30.80
2017-09-30T03:29:13.033Z,30.70
2017-09-30T03:29:46.777Z,31.35
2017-09-30T03:30:20.502Z,30.30
2017-09-30T03:30:55.008Z,30.60
2017-09-30T03:31:29.510Z,31.55
2017-09-30T03:32:04.005Z,30.77
2017-09-30T03:32:37.719Z,30.62
2017-09-30T03:33:12.237Z,31.77
2017-09-30T03:33:45.952Z,30.92
2017-09-30T03:34:19.711Z,31.98
2017-09-30T03:34:54.215Z,31.75
2017-09-30T03:35:28.720Z,30.80
2017-09-30T03:36:03.262Z,32.22
2017-09-30T03:36:36.977Z,32.40
2017-09-30T03:37:10.692Z,30.48
2017-09-30T03:37:44.409Z,29.55
2017-09-30T03:38:18.887Z,32.38
2017-09-30T03:38:52.611Z,31.80
2017-09-30T03:39:27.104Z,31.05
2017-09-30T03:40:00.820Z,31.98
2017-09-30T03:40:35.305Z,30.55
2017-09-30T03:41:09.022Z,33.15
2017-09-30T03:41:42.750Z,31.50
2017-09-30T03:42:16.485Z,32.15
2017-09-30T03:42:50.984Z,32.00
2017-09-30T03:43:24.699Z,31.90
2017-09-30T03:43:58.417Z,31.58
2017-09-30T03:44:32.150Z,31.65
2017-09-30T03:45:05.862Z,31.92
2017-09-30T03:45:40.472Z,30.83
2017-09-30T03:46:14.945Z,30.60
2017-09-30T03:46:48.670Z,32.03
2017-09-30T03:47:23.150Z,33.22
2017-09-30T03:47:56.865Z,33.50
2017-09-30T03:48:31.357Z,33.85
2017-09-30T03:49:05.098Z,32.63
2017-09-30T03:49:39.190Z,31.75
2017-09-30T03:50:12.908Z,32.38
2017-09-30T03:50:46.613Z,33.85
2017-09-30T03:51:19.992Z,32.80
2017-09-30T03:51:53.724Z,32.67
2017-09-30T03:52:28.204Z,34.15
2017-09-30T03:53:01.922Z,31.83
2017-09-30T03:53:36.412Z,34.45
2017-09-30T03:54:10.123Z,33.10
2017-09-30T03:54:44.624Z,32.63
2017-09-30T03:55:19.136Z,31.60
2017-09-30T03:55:53.634Z,33.53
2017-09-30T03:56:27.365Z,33.92
2017-09-30T03:57:00.914Z,33.00
2017-09-30T03:57:35.405Z,33.20
2017-09-30T03:58:09.128Z,33.65
2017-09-30T03:58:43.617Z,32.38
2017-09-30T03:59:17.345Z,33.72
2017-09-30T03:59:51.086Z,32.30
2017-09-30T04:00:24.805Z,34.05
2017-09-30T04:00:59.302Z,33.97
2017-09-30T04:01:33.795Z,31.62
2017-09-30T04:02:07.541Z,33.13
2017-09-30T04:02:41.261Z,31.67
2017-09-30T04:03:14.982Z,33.33
2017-09-30T04:03:48.709Z,31.58
2017-09-30T04:04:22.248Z,33.00
2017-09-30T04:04:55.984Z,29.98
2017-09-30T04:05:29.729Z,32.58
2017-09-30T04:06:03.456Z,33.42
2017-09-30T04:06:37.940Z,32.97
2017-09-30T04:07:11.662Z,32.40
2017-09-30T04:07:45.386Z,33.10
2017-09-30T04:08:19.100Z,31.10
2017-09-30T04:08:52.828Z,32.58
2017-09-30T04:09:26.560Z,32.90
2017-09-30T04:10:00.311Z,33.95
2017-09-30T04:10:34.042Z,31.92
2017-09-30T04:11:07.572Z,32.75
2017-09-30T04:11:41.865Z,33.53
2017-09-30T04:12:15.597Z,33.35
2017-09-30T04:12:49.331Z,31.92
2017-09-30T04:13:23.057Z,33.65
2017-09-30T04:13:57.551Z,31.33
2017-09-30T04:14:31.265Z,34.63
2017-09-30T04:15:05.277Z,33.40
2017-09-30T04:15:39.000Z,32.80
2017-09-30T04:16:12.720Z,33.08
2017-09-30T04:16:46.427Z,32.90
2017-09-30T04:17:20.930Z,33.75
2017-09-30T04:17:55.416Z,32.78
2017-09-30T04:18:29.136Z,32.17
2017-09-30T04:19:03.628Z,31.98
2017-09-30T04:19:37.362Z,32.90
2017-09-30T04:20:11.092Z,31.42
2017-09-30T04:20:44.460Z,32.42
2017-09-30T04:21:18.176Z,33.10
2017-09-30T04:21:51.905Z,32.25
2017-09-30T04:22:25.611Z,31.30
2017-09-30T04:22:59.321Z,29.80
2017-09-30T04:23:33.041Z,30.85
2017-09-30T04:24:06.767Z,29.80
2017-09-30T04:24:40.471Z,30.88
2017-09-30T04:25:14.201Z,32.03
2017-09-30T04:25:47.924Z,30.33
2017-09-30T04:26:22.408Z,31.08
2017-09-30T04:26:56.122Z,32.80
2017-09-30T04:27:30.612Z,33.38
2017-09-30T04:28:04.334Z,33.30
2017-09-30T04:28:38.062Z,31.90
2017-09-30T04:29:11.771Z,30.37
2017-09-30T04:29:45.483Z,32.80
2017-09-30T04:30:19.985Z,32.33
2017-09-30T04:30:53.710Z,32.50
2017-09-30T04:31:27.432Z,31.98
2017-09-30T04:32:01.173Z,32.65
2017-09-30T04:32:35.661Z,32.53
2017-09-30T04:33:09.389Z,31.77
2017-09-30T04:33:43.112Z,31.00
2017-09-30T04:34:16.871Z,32.40
2017-09-30T04:34:50.604Z,30.52
2017-09-30T04:35:24.357Z,32.30
2017-09-30T04:35:58.086Z,30.77
2017-09-30T04:36:31.803Z,32.75
2017-09-30T04:37:06.293Z,32.22
2017-09-30T04:37:40.010Z,32.92
2017-09-30T04:38:14.489Z,30.65
2017-09-30T04:38:48.229Z,33.65
2017-09-30T04:39:21.975Z,31.92
2017-09-30T04:39:55.710Z,32.08
2017-09-30T04:40:29.458Z,33.67
2017-09-30T04:41:03.194Z,32.88
2017-09-30T04:41:36.932Z,31.02
2017-09-30T04:42:10.657Z,31.87
2017-09-30T04:42:45.145Z,32.90
2017-09-30T04:43:18.859Z,32.65
2017-09-30T04:43:53.353Z,33.80
2017-09-30T04:44:27.073Z,32.75
2017-09-30T04:45:00.796Z,34.15
2017-09-30T04:45:34.871Z,31.70
2017-09-30T04:46:08.584Z,34.97
2017-09-30T04:46:42.297Z,34.55
2017-09-30T04:47:16.014Z,34.53
2017-09-30T04:47:50.505Z,34.78
2017-09-30T04:48:24.244Z,31.77
2017-09-30T04:48:57.971Z,31.52
2017-09-30T04:49:31.699Z,33.72
2017-09-30T04:50:06.184Z,32.30
2017-09-30T04:50:39.912Z,31.85
2017-09-30T04:51:13.628Z,32.22
2017-09-30T04:51:47.338Z,32.30
2017-09-30T04:52:21.057Z,33.55
2017-09-30T04:52:54.812Z,32.88
2017-09-30T04:53:28.539Z,33.60
2017-09-30T04:54:02.260Z,34.15
2017-09-30T04:54:35.979Z,32.53
2017-09-30T04:55:09.705Z,33.33
2017-09-30T04:55:43.453Z,33.05
2017-09-30T04:56:17.169Z,32.53
2017-09-30T04:56:50.891Z,31.30
2017-09-30T04:57:25.389Z,31.12
2017-09-30T04:57:59.108Z,32.15
2017-09-30T04:58:32.833Z,35.97
2017-09-30T04:59:06.539Z,34.15
2017-09-30T04:59:40.281Z,32.42
2017-09-30T05:00:13.650Z,32.55
2017-09-30T05:00:48.480Z,32.50
2017-09-30T05:01:22.211Z,33.95
2017-09-30T05:01:55.929Z,33.70
2017-09-30T05:02:29.640Z,33.78
2017-09-30T05:03:04.128Z,32.50
2017-09-30T05:03:37.849Z,32.25
2017-09-30T05:04:12.347Z,30.60
2017-09-30T05:04:46.833Z,33.55
2017-09-30T05:05:20.550Z,33.15
2017-09-30T05:05:55.396Z,33.50
2017-09-30T05:06:29.118Z,32.95
2017-09-30T05:07:02.835Z,32.90
2017-09-30T05:07:37.334Z,32.80
2017-09-30T05:08:11.054Z,34.17
2017-09-30T05:08:45.548Z,33.15
2017-09-30T05:09:20.035Z,31.23
2017-09-30T05:09:53.758Z,32.15
2017-09-30T05:10:28.245Z,33.00
2017-09-30T05:11:01.988Z,31.83
2017-09-30T05:11:35.732Z,33.63
2017-09-30T05:12:10.212Z,32.60
2017-09-30T05:12:43.925Z,31.42
2017-09-30T05:13:17.652Z,31.58
2017-09-30T05:13:51.373Z,31.55
2017-09-30T05:14:25.092Z,31.75
2017-09-30T05:14:58.803Z,32.15
2017-09-30T05:15:33.293Z,32.88
2017-09-30T05:16:07.037Z,31.42
2017-09-30T05:16:40.752Z,33.10
2017-09-30T05:17:14.470Z,31.80
2017-09-30T05:17:48.193Z,31.30
2017-09-30T05:18:21.908Z,31.00
2017-09-30T05:18:55.645Z,33.75
2017-09-30T05:19:30.132Z,31.25
2017-09-30T05:20:03.505Z,30.73
2017-09-30T05:20:37.225Z,33.00
2017-09-30T05:21:11.736Z,34.33
2017-09-30T05:21:45.452Z,30.00
2017-09-30T05:22:19.937Z,29.58
2017-09-30T05:22:54.428Z,32.40
2017-09-30T05:23:28.153Z,30.17
2017-09-30T05:24:02.645Z,31.83
2017-09-30T05:24:37.145Z,31.52
2017-09-30T05:25:10.873Z,32.25
2017-09-30T05:25:44.591Z,31.52
2017-09-30T05:26:18.337Z,33.80
2017-09-30T05:26:52.829Z,32.08
2017-09-30T05:27:26.557Z,31.40
2017-09-30T05:28:00.277Z,31.73
2017-09-30T05:28:33.993Z,31.55
2017-09-30T05:29:07.709Z,34.05
2017-09-30T05:29:42.191Z,34.30
2017-09-30T05:30:15.906Z,32.42
2017-09-30T05:30:50.380Z,30.42
2017-09-30T05:31:24.104Z,33.08
2017-09-30T05:31:58.595Z,29.75
2017-09-30T05:32:32.307Z,32.00
2017-09-30T05:33:06.777Z,29.35
2017-09-30T05:33:40.492Z,31.75
2017-09-30T05:34:14.208Z,30.90
2017-09-30T05:34:48.706Z,32.00
2017-09-30T05:35:23.184Z,31.65
2017-09-30T05:35:56.902Z,31.05
2017-09-30T05:36:31.413Z,31.60
2017-09-30T05:37:05.893Z,35.15
2017-09-30T05:37:39.608Z,31.92
2017-09-30T05:38:14.085Z,30.23
2017-09-30T05:38:47.808Z,30.95
2017-09-30T05:39:22.317Z,32.33
2017-09-30T05:39:56.806Z,30.73
2017-09-30T05:40:30.526Z,29.90
2017-09-30T05:41:05.013Z,31.60
2017-09-30T05:41:38.737Z,30.80
2017-09-30T05:42:12.456Z,32.53
2017-09-30T05:42:46.173Z,34.20
2017-09-30T05:43:19.881Z,31.00
2017-09-30T05:43:54.383Z,33.42
2017-09-30T05:44:28.100Z,33.13
2017-09-30T05:45:01.804Z,32.00
2017-09-30T05:45:35.341Z,33.38
2017-09-30T05:46:09.057Z,31.27
2017-09-30T05:46:43.894Z,30.55
2017-09-30T05:47:17.671Z,31.80
2017-09-30T05:47:52.166Z,32.53
2017-09-30T05:48:25.874Z,29.52
2017-09-30T05:48:59.404Z,32.25
2017-09-30T05:49:32.923Z,33.78
2017-09-30T05:50:06.648Z,31.85
2017-09-30T05:50:40.354Z,30.90
2017-09-30T05:51:14.069Z,32.40
2017-09-30T05:51:48.128Z,32.63
2017-09-30T05:52:21.852Z,32.13
2017-09-30T05:52:55.568Z,31.45
2017-09-30T05:53:29.279Z,30.73
2017-09-30T05:54:03.761Z,33.17
2017-09-30T05:54:37.475Z,32.53
2017-09-30T05:55:11.955Z,32.00
2017-09-30T05:55:45.664Z,30.50
2017-09-30T05:56:19.390Z,29.90
2017-09-30T05:56:53.116Z,30.48
2017-09-30T05:57:26.832Z,30.08
2017-09-30T05:58:00.558Z,28.87
2017-09-30T05:58:34.132Z,30.73
2017-09-30T05:59:08.534Z,30.77
2017-09-30T05:59:43.029Z,30.80
2017-09-30T06:00:16.747Z,30.75
2017-09-30T06:00:50.124Z,32.17
2017-09-30T06:01:24.609Z,30.88
2017-09-30T06:01:59.108Z,29.55
2017-09-30T06:02:32.821Z,30.45
2017-09-30T06:03:07.293Z,29.85
2017-09-30T06:03:41.020Z,28.33
2017-09-30T06:04:15.532Z,29.95
2017-09-30T06:04:50.010Z,30.55
2017-09-30T06:05:23.730Z,30.23
2017-09-30T06:05:58.197Z,31.08
2017-09-30T06:06:31.915Z,30.27
2017-09-30T06:07:05.652Z,30.42
2017-09-30T06:07:39.372Z,31.50
2017-09-30T06:08:13.097Z,31.05
2017-09-30T06:08:47.609Z,28.48
2017-09-30T06:09:22.100Z,28.98
2017-09-30T07:29:59.152Z,31.17
2017-09-30T07:30:32.896Z,30.30
2017-09-30T07:31:06.433Z,31.95
2017-09-30T07:31:40.152Z,30.20
2017-09-30T07:32:13.884Z,30.92
2017-09-30T07:32:48.397Z,32.08
2017-09-30T07:33:22.908Z,33.28
2017-09-30T07:33:57.440Z,32.53
2017-09-30T07:34:31.170Z,32.00
2017-09-30T07:35:04.898Z,30.37
2017-09-30T07:35:39.008Z,31.15
2017-09-30T07:36:13.526Z,32.17
2017-09-30T07:36:47.354Z,30.70
2017-09-30T07:37:21.077Z,30.30
2017-09-30T07:37:54.802Z,28.60
2017-09-30T07:38:28.530Z,31.42
2017-09-30T07:39:02.273Z,29.95
2017-09-30T07:39:36.770Z,29.02
2017-09-30T07:40:11.240Z,31.52
2017-09-30T07:40:44.984Z,27.92
2017-09-30T07:41:18.706Z,29.80
2017-09-30T07:41:52.435Z,29.12
2017-09-30T07:42:26.161Z,29.60
2017-09-30T07:42:59.945Z,30.08
2017-09-30T07:43:33.679Z,29.30
2017-09-30T07:44:07.408Z,30.23
2017-09-30T07:44:41.901Z,29.55
2017-09-30T07:45:15.637Z,30.55
2017-09-30T07:45:49.369Z,28.27
2017-09-30T07:46:23.203Z,30.60
2017-09-30T07:46:57.685Z,27.48
2017-09-30T07:47:31.406Z,30.15
2017-09-30T07:48:05.902Z,29.77
2017-09-30T07:48:40.372Z,29.35
2017-09-30T07:49:14.103Z,31.35
2017-09-30T07:49:48.587Z,28.87
2017-09-30T07:50:22.325Z,28.80
2017-09-30T07:50:56.063Z,29.73
2017-09-30T07:51:30.576Z,29.50
2017-09-30T07:52:04.294Z,29.52
2017-09-30T07:52:38.786Z,29.58
2017-09-30T07:53:12.495Z,27.87
2017-09-30T07:53:46.988Z,28.70
2017-09-30T07:54:20.698Z,28.27
2017-09-30T07:54:55.177Z,28.77
2017-09-30T07:55:28.921Z,28.20
2017-09-30T07:56:02.652Z,29.90
2017-09-30T07:56:36.384Z,28.67
2017-09-30T07:57:10.869Z,29.00
2017-09-30T07:57:44.581Z,28.83
2017-09-30T07:58:19.062Z,28.20
2017-09-30T07:58:52.782Z,31.75
2017-09-30T07:59:26.501Z,32.30
2017-09-30T08:00:00.208Z,30.40
2017-09-30T08:00:33.909Z,27.55
2017-09-30T08:01:07.659Z,31.08
2017-09-30T08:01:41.380Z,28.40
2017-09-30T08:02:15.119Z,29.00
2017-09-30T08:02:49.605Z,28.05
2017-09-30T08:03:23.340Z,29.17
2017-09-30T08:03:57.061Z,28.55
2017-09-30T08:04:30.781Z,30.05
2017-09-30T08:05:04.489Z,29.20
2017-09-30T08:05:39.006Z,28.35
2017-09-30T08:06:13.504Z,28.12
2017-09-30T08:06:46.973Z,30.70
2017-09-30T08:07:20.688Z,29.12
2017-09-30T08:07:55.195Z,27.98
2017-09-30T08:08:29.694Z,27.60
2017-09-30T08:09:03.243Z,28.87
2017-09-30T08:09:36.984Z,29.23
2017-09-30T08:10:11.472Z,28.90
2017-09-30T08:10:45.174Z,28.65
2017-09-30T08:11:18.893Z,28.45
2017-09-30T08:11:52.604Z,29.77
2017-09-30T08:12:26.345Z,29.45
2017-09-30T08:13:00.841Z,32.53
2017-09-30T08:13:34.559Z,31.40
2017-09-30T08:14:09.041Z,29.48
2017-09-30T08:14:42.761Z,30.48
2017-09-30T08:15:16.489Z,30.85
2017-09-30T08:15:49.968Z,29.80
2017-09-30T08:16:23.446Z,28.93
2017-09-30T08:16:57.156Z,31.83
2017-09-30T08:17:30.876Z,30.75
2017-09-30T08:18:04.595Z,31.17
2017-09-30T08:18:38.045Z,29.40
2017-09-30T08:19:11.497Z,28.90
2017-09-30T08:19:45.237Z,30.25
2017-09-30T08:20:19.755Z,29.92
2017-09-30T08:20:54.235Z,29.15
2017-09-30T08:21:27.961Z,29.02
2017-09-30T08:22:01.717Z,29.05
2017-09-30T08:22:35.257Z,30.33
2017-09-30T08:23:08.706Z,30.23
2017-09-30T08:23:43.194Z,28.95
2017-09-30T08:24:16.904Z,29.30
2017-09-30T08:24:50.607Z,29.35
2017-09-30T08:25:24.056Z,28.50
2017-09-30T08:25:57.777Z,28.67
2017-09-30T08:26:32.384Z,29.60
2017-09-30T08:27:05.866Z,28.67
2017-09-30T08:27:39.324Z,27.57
2017-09-30T08:28:13.052Z,30.73
2017-09-30T08:28:46.315Z,28.63
2017-09-30T08:29:20.059Z,29.33
2017-09-30T08:29:53.504Z,29.93
2017-09-30T08:30:26.954Z,27.70
2017-09-30T08:31:01.290Z,27.93
2017-09-30T08:31:34.760Z,30.43
2017-09-30T08:32:08.200Z,29.47
2017-09-30T08:32:41.669Z,29.33
2017-09-30T08:33:15.402Z,30.05
2017-09-30T08:33:49.113Z,27.70
2017-09-30T08:34:22.830Z,28.50
2017-09-30T08:34:56.552Z,29.25
2017-09-30T08:35:30.265Z,29.48
2017-09-30T08:36:04.501Z,28.30